Terminal Aerodrome Forecast
Issued by NWS

Home | Current Version | Previous Version | Text Only | Print | Product List | Glossary On
Versions: 1 2 3 4 5 6 7 8 9 10 11 12 13 14 15 16 17 18 19 20 21 22 23 24
000
FTPA31 PHFO 220500
TAFOGG
TAF
PHOG 220525Z 2206/2306 07010KT P6SM FEW020 SCT040
     FM220900 12005KT P6SM FEW040
     FM222000 04012G18KT P6SM SCT030 BKN040
     FM230500 06010KT P6SM FEW040
      AMD LTD TO WX VIS AND WIND 2209/2216=

USA.gov is the U.S. government's official web portal to all federal, state and local government web resources and services.